Hope, Michigan
Current Conditions -  °F | °C
As of 7:31 AM on Friday 31 Oct 2014 (Local Time) from KIKW Reporting Station
Light Rain Light Rain  
Wind Chill:   Ceiling: 3800
Heat Index:   Visibility: 7mi
Dew Point:   Wind: 0mph
Humidity: 98%   Direction: NA
Pressure: 29.89"   Gusts: NA
Location:  43.76°N, 84.34°W
Report Text: KIKW 311131Z AUTO 00000KT 7SM -RA SCT024 OVC038 05/05 A2989 RMK AO2 T00530050
Loading
Personal Weather Stations






























Interactive Weather Map
Tropical Storm Tracking
New forecast layout! Learn more

10-Day Weather Forecast

Advertisements
Track Severe Weather on mobile